Terminal Aerodrome Forecast
Issued by NWS

Home | Current Version | Previous Version | Text Only | Print | Product List | Glossary On
Versions: 1 2 3 4 5 6 7 8 9 10 11 12 13 14 15 16
000
FTUS41 KBTV 262323 AAA
TAFSLK
TAF AMD
KSLK 262323Z 2623/2724 VRB03KT P6SM FEW250
     FM270600 00000KT 3SM BR SCT080
     FM270800 00000KT 1/4SM FG BKN001
     FM271100 00000KT 1SM BR SCT002
     FM271200 00000KT P6SM SCT200
     FM271600 VRB03KT P6SM SCT050=

USA.gov is the U.S. government's official web portal to all federal, state and local government web resources and services.